createdAt,value
2023-05-16T00:00:53.335Z,6.03
2023-05-16T00:03:21.938Z,4.37
2023-05-16T00:05:50.723Z,3.90
2023-05-16T00:08:19.050Z,3.70
2023-05-16T00:10:47.355Z,3.87
2023-05-16T00:13:22.282Z,4.63
2023-05-16T00:15:52.159Z,3.77
2023-05-16T00:18:22.097Z,3.47
2023-05-16T00:20:50.704Z,4.27
2023-05-16T00:23:19.161Z,4.30
2023-05-16T00:25:47.694Z,4.80
2023-05-16T00:28:16.062Z,3.83
2023-05-16T00:30:44.376Z,4.10
2023-05-16T00:33:14.320Z,5.17
2023-05-16T00:35:42.644Z,4.33
2023-05-16T00:38:13.804Z,4.23
2023-05-16T00:40:42.124Z,4.00
2023-05-16T00:43:10.683Z,4.57
2023-05-16T00:45:39.282Z,5.13
2023-05-16T00:48:09.435Z,4.43
2023-05-16T00:50:42.391Z,4.77
2023-05-16T00:53:10.756Z,4.90
2023-05-16T00:55:39.605Z,4.80
2023-05-16T00:58:08.462Z,4.87
2023-05-16T01:00:37.669Z,4.80
2023-05-16T01:03:07.062Z,5.30
2023-05-16T01:05:35.825Z,4.80
2023-05-16T01:08:05.923Z,4.87
2023-05-16T01:10:42.447Z,5.47
2023-05-16T01:13:16.876Z,9.03
2023-05-16T01:15:52.169Z,5.10
2023-05-16T01:18:32.487Z,5.07
2023-05-16T01:21:04.100Z,5.17
2023-05-16T01:23:50.936Z,4.77
2023-05-16T01:26:25.046Z,4.57
2023-05-16T01:28:54.125Z,6.43
2023-05-16T01:31:24.333Z,5.70
2023-05-16T01:33:52.730Z,5.20
2023-05-16T01:36:27.314Z,4.90
2023-05-16T01:39:08.060Z,5.20
2023-05-16T01:41:56.025Z,5.23
2023-05-16T01:44:32.203Z,5.80
2023-05-16T01:47:11.064Z,5.13
2023-05-16T01:49:50.796Z,4.47
2023-05-16T01:52:27.966Z,8.23
2023-05-16T01:55:00.574Z,4.93
2023-05-16T01:57:31.278Z,4.73
2023-05-16T02:00:00.031Z,4.57
2023-05-16T02:02:28.614Z,5.10
2023-05-16T02:04:56.956Z,4.33
2023-05-16T02:07:25.540Z,5.27
2023-05-16T02:09:53.849Z,5.17
2023-05-16T02:12:22.090Z,7.37
2023-05-16T02:14:51.742Z,5.30
2023-05-16T02:17:20.102Z,5.27
2023-05-16T02:19:48.392Z,5.00
2023-05-16T02:22:19.434Z,6.07
2023-05-16T02:24:47.694Z,5.47
2023-05-16T02:27:16.007Z,5.40
2023-05-16T02:29:44.347Z,6.00
2023-05-16T02:32:13.985Z,5.37
2023-05-16T02:34:43.008Z,6.67
2023-05-16T02:37:13.206Z,6.97
2023-05-16T02:39:41.774Z,5.37
2023-05-16T02:42:12.961Z,5.03
2023-05-16T02:44:41.195Z,5.03
2023-05-16T02:47:12.087Z,5.40
2023-05-16T02:49:41.714Z,5.43
2023-05-16T02:52:10.059Z,6.47
2023-05-16T02:54:38.307Z,7.03
2023-05-16T02:57:06.822Z,8.37
2023-05-16T02:59:35.105Z,5.30
2023-05-16T03:02:03.796Z,7.20
2023-05-16T03:04:32.237Z,5.60
2023-05-16T03:07:02.026Z,5.60
2023-05-16T03:09:33.408Z,5.67
2023-05-16T03:12:01.701Z,6.67
2023-05-16T03:14:30.004Z,6.13
2023-05-16T03:16:58.315Z,7.20
2023-05-16T03:19:29.345Z,9.50
2023-05-16T03:21:57.680Z,5.63
2023-05-16T03:24:27.415Z,4.80
2023-05-16T03:26:56.030Z,5.00
2023-05-16T03:29:24.276Z,6.00
2023-05-16T03:31:52.654Z,5.83
2023-05-16T03:34:20.977Z,5.53
2023-05-16T03:36:50.622Z,6.20
2023-05-16T03:39:19.136Z,6.43
2023-05-16T03:41:48.791Z,5.87
2023-05-16T03:44:17.108Z,6.00
2023-05-16T03:46:48.439Z,8.37
2023-05-16T03:49:16.688Z,5.60
2023-05-16T03:51:47.887Z,6.03
2023-05-16T03:54:16.471Z,6.27
2023-05-16T03:56:44.767Z,6.07
2023-05-16T03:59:14.751Z,6.67
2023-05-16T04:01:43.634Z,9.43
2023-05-16T04:04:11.958Z,6.77
2023-05-16T04:06:40.534Z,5.83
2023-05-16T04:09:09.670Z,6.13
2023-05-16T04:11:40.849Z,6.07
2023-05-16T04:14:09.199Z,6.03
2023-05-16T04:16:38.943Z,6.47
2023-05-16T04:19:07.332Z,6.70
2023-05-16T04:21:36.415Z,6.90
2023-05-16T04:24:05.070Z,7.23
2023-05-16T04:26:33.656Z,6.67
2023-05-16T04:29:02.005Z,6.93
2023-05-16T04:31:40.126Z,7.20
2023-05-16T04:34:11.332Z,6.97
2023-05-16T04:36:40.334Z,7.30
2023-05-16T04:39:08.788Z,6.03
2023-05-16T04:41:37.082Z,6.63
2023-05-16T04:44:05.396Z,6.70
2023-05-16T04:46:33.832Z,7.40
2023-05-16T04:49:03.483Z,7.07
2023-05-16T04:51:34.947Z,7.17
2023-05-16T04:54:03.221Z,6.93
2023-05-16T04:56:32.017Z,7.20
2023-05-16T04:59:00.491Z,8.17
2023-05-16T05:01:28.894Z,8.07
2023-05-16T05:03:59.452Z,8.07
2023-05-16T05:06:29.163Z,9.20
2023-05-16T05:08:57.461Z,8.20
2023-05-16T05:11:26.973Z,9.07
2023-05-16T05:13:55.267Z,9.73
2023-05-16T05:16:23.581Z,9.50
2023-05-16T05:18:52.035Z,9.30
2023-05-16T05:21:22.084Z,9.17
2023-05-16T05:23:51.750Z,9.40
2023-05-16T05:26:21.293Z,9.53
2023-05-16T05:29:01.024Z,11.43
2023-05-16T05:31:33.844Z,10.97
2023-05-16T05:34:02.477Z,12.07
2023-05-16T05:36:30.974Z,14.00
2023-05-16T05:39:00.862Z,14.60
2023-05-16T05:41:29.201Z,14.60
2023-05-16T05:43:57.473Z,14.83
2023-05-16T05:46:26.473Z,14.67
2023-05-16T05:48:57.626Z,13.70
2023-05-16T05:51:26.147Z,13.70
2023-05-16T05:53:54.605Z,13.20
2023-05-16T05:56:24.811Z,13.47
2023-05-16T05:58:53.428Z,13.87
2023-05-16T06:01:22.284Z,11.63
2023-05-16T06:03:51.760Z,13.50
2023-05-16T06:06:20.292Z,13.57
2023-05-16T06:08:48.558Z,13.10
2023-05-16T06:11:16.875Z,14.57
2023-05-16T06:13:46.617Z,12.87
2023-05-16T06:16:15.151Z,14.23
2023-05-16T06:18:43.657Z,14.60
2023-05-16T06:21:15.321Z,14.87
2023-05-16T06:23:43.772Z,14.10
2023-05-16T06:26:12.106Z,13.73
2023-05-16T06:28:40.530Z,13.10
2023-05-16T06:31:11.994Z,13.77
2023-05-16T06:33:40.790Z,14.67
2023-05-16T06:36:09.612Z,14.03
2023-05-16T06:38:37.891Z,13.73
2023-05-16T06:41:06.249Z,13.77
2023-05-16T06:43:34.582Z,14.03
2023-05-16T06:46:03.932Z,18.73
2023-05-16T06:48:33.698Z,15.50
2023-05-16T06:51:01.994Z,14.63
2023-05-16T06:53:30.271Z,13.20
2023-05-16T06:55:58.588Z,13.33
2023-05-16T06:58:27.696Z,12.67
2023-05-16T07:00:56.445Z,15.03
2023-05-16T07:03:25.023Z,14.20
2023-05-16T07:05:54.846Z,12.27
2023-05-16T07:08:23.249Z,12.60
2023-05-16T07:10:51.650Z,12.60
2023-05-16T07:13:20.015Z,13.97
2023-05-16T07:15:48.359Z,13.50
2023-05-16T07:18:16.723Z,13.37
2023-05-16T07:20:45.952Z,13.17
2023-05-16T07:23:15.683Z,12.43
2023-05-16T07:25:44.052Z,15.17
2023-05-16T07:28:12.356Z,13.80
2023-05-16T07:30:40.702Z,14.77
2023-05-16T07:33:09.022Z,13.33
2023-05-16T07:35:37.443Z,14.13
2023-05-16T07:38:06.355Z,13.70
2023-05-16T07:40:36.016Z,13.80
2023-05-16T07:43:04.371Z,13.13
2023-05-16T07:45:32.780Z,12.63
2023-05-16T07:48:01.258Z,13.33
2023-05-16T07:50:29.736Z,12.10
2023-05-16T07:52:58.074Z,11.60
2023-05-16T07:55:26.568Z,11.57
2023-05-16T07:57:56.650Z,10.93
2023-05-16T08:00:25.279Z,11.63
2023-05-16T08:02:54.046Z,11.60
2023-05-16T08:05:22.920Z,11.50
2023-05-16T08:07:51.444Z,18.57
2023-05-16T08:10:19.815Z,10.90
2023-05-16T08:12:48.420Z,12.23
2023-05-16T08:15:18.254Z,12.70
2023-05-16T08:17:46.679Z,12.17
2023-05-16T08:20:15.205Z,12.57
2023-05-16T08:22:46.655Z,12.03
2023-05-16T08:25:15.044Z,12.83
2023-05-16T08:27:45.476Z,12.30
2023-05-16T08:30:15.434Z,13.17
2023-05-16T08:32:45.244Z,11.70
2023-05-16T08:35:13.904Z,13.70
2023-05-16T08:37:42.326Z,11.80
2023-05-16T08:40:12.622Z,11.80
2023-05-16T08:42:43.307Z,11.90
2023-05-16T08:45:13.299Z,12.30
2023-05-16T08:47:45.362Z,11.97
2023-05-16T08:50:13.957Z,11.50
2023-05-16T08:52:45.413Z,12.50
2023-05-16T08:55:16.541Z,10.23
2023-05-16T08:57:45.729Z,11.10
2023-05-16T09:00:15.745Z,11.33
2023-05-16T09:02:46.728Z,10.53
2023-05-16T09:05:17.170Z,10.57
2023-05-16T09:07:46.639Z,11.93
2023-05-16T09:10:15.093Z,10.80
2023-05-16T09:12:43.968Z,11.03
2023-05-16T09:15:16.107Z,10.77
2023-05-16T09:17:49.120Z,10.83
2023-05-16T09:20:19.566Z,11.90
2023-05-16T09:22:56.357Z,11.40
2023-05-16T09:27:59.476Z,10.97
2023-05-16T09:30:32.303Z,10.23
2023-05-16T09:33:02.257Z,10.70
2023-05-16T09:35:44.664Z,9.40
2023-05-16T09:38:18.856Z,10.17
2023-05-16T09:40:47.628Z,9.00
2023-05-16T09:43:18.440Z,9.63
2023-05-16T09:45:49.629Z,8.23
2023-05-16T09:48:20.090Z,9.13
2023-05-16T09:50:52.383Z,10.70
2023-05-16T09:53:27.553Z,9.50
2023-05-16T09:56:04.045Z,8.93
2023-05-16T09:58:33.767Z,9.40
2023-05-16T10:01:02.834Z,9.40
2023-05-16T10:03:35.124Z,9.80
2023-05-16T10:06:05.587Z,9.37
2023-05-16T10:08:36.731Z,8.80
2023-05-16T10:11:06.999Z,8.07
2023-05-16T10:13:37.825Z,8.17
2023-05-16T10:16:11.812Z,8.27
2023-05-16T10:18:43.821Z,9.73
2023-05-16T10:21:17.048Z,8.80
2023-05-16T10:23:48.927Z,8.50
2023-05-16T10:26:18.903Z,8.73
2023-05-16T10:28:47.569Z,8.20
2023-05-16T10:31:16.968Z,8.93
2023-05-16T10:33:47.299Z,8.80
2023-05-16T10:36:16.758Z,8.10
2023-05-16T10:38:48.069Z,7.67
2023-05-16T10:41:17.034Z,6.50
2023-05-16T10:43:57.586Z,7.27
2023-05-16T10:46:29.189Z,6.20
2023-05-16T10:48:59.303Z,7.70
2023-05-16T10:51:38.961Z,7.33
2023-05-16T10:54:10.416Z,6.63
2023-05-16T10:56:39.355Z,8.50
2023-05-16T10:59:26.168Z,7.50
2023-05-16T11:01:56.467Z,7.10
2023-05-16T11:04:51.410Z,6.70
2023-05-16T11:07:21.193Z,7.27
2023-05-16T11:10:06.978Z,6.47
2023-05-16T11:12:50.111Z,6.53
2023-05-16T11:15:28.502Z,5.70
2023-05-16T11:18:08.912Z,5.63
2023-05-16T11:20:40.401Z,6.43
2023-05-16T11:23:23.722Z,6.70
2023-05-16T11:25:56.917Z,7.00
2023-05-16T11:28:27.016Z,5.77
2023-05-16T11:31:00.139Z,6.57
2023-05-16T11:33:29.949Z,6.10
2023-05-16T11:36:15.901Z,5.80
2023-05-16T11:38:45.066Z,6.87
2023-05-16T11:41:15.618Z,6.43
2023-05-16T11:43:45.887Z,7.37
2023-05-16T11:46:15.001Z,5.53
2023-05-16T11:48:46.610Z,5.87
2023-05-16T11:51:20.524Z,5.27
2023-05-16T11:53:50.870Z,5.60
2023-05-16T11:56:19.657Z,5.80
2023-05-16T11:58:48.267Z,5.60
2023-05-16T12:01:18.690Z,5.00
2023-05-16T12:03:56.004Z,5.10
2023-05-16T12:06:26.314Z,5.23
2023-05-16T12:08:54.725Z,6.57
2023-05-16T12:11:27.661Z,5.33
2023-05-16T12:13:56.318Z,7.63
2023-05-16T12:16:25.564Z,6.57
2023-05-16T12:18:54.259Z,5.73
2023-05-16T12:21:22.963Z,5.80
2023-05-16T12:23:57.152Z,6.07
2023-05-16T12:26:28.386Z,6.93
2023-05-16T12:29:00.722Z,5.10
2023-05-16T12:31:32.132Z,4.17
2023-05-16T12:34:01.195Z,2.97
2023-05-16T12:36:35.131Z,3.50
2023-05-16T12:39:05.622Z,3.87
2023-05-16T12:41:34.118Z,3.23
2023-05-16T12:44:13.382Z,3.50
2023-05-16T12:46:46.604Z,4.23
2023-05-16T12:49:16.140Z,4.07
2023-05-16T12:51:52.364Z,3.93
2023-05-16T12:54:23.767Z,3.80
2023-05-16T12:56:52.387Z,3.87
2023-05-16T12:59:20.817Z,3.87
2023-05-16T13:01:49.580Z,3.87
2023-05-16T13:04:20.252Z,4.47
2023-05-16T13:06:59.050Z,4.23
2023-05-16T13:09:32.718Z,3.97
2023-05-16T13:12:01.858Z,4.40
2023-05-16T13:14:30.448Z,4.50
2023-05-16T13:16:58.905Z,4.80
2023-05-16T13:19:27.509Z,5.47
2023-05-16T13:21:56.223Z,5.73
2023-05-16T13:24:24.715Z,6.33
2023-05-16T13:26:54.576Z,4.87
2023-05-16T13:29:23.073Z,5.03
2023-05-16T13:31:51.704Z,6.07
2023-05-16T13:34:20.136Z,4.27
2023-05-16T13:36:54.457Z,4.03
2023-05-16T13:39:23.666Z,4.30
2023-05-16T13:41:53.869Z,4.63
2023-05-16T13:44:22.711Z,6.07
2023-05-16T13:46:51.294Z,5.67
2023-05-16T13:49:19.735Z,5.40
2023-05-16T13:51:48.516Z,5.10
2023-05-16T13:54:17.226Z,5.27
2023-05-16T13:56:45.834Z,5.10
2023-05-16T13:59:20.792Z,4.70
2023-05-16T14:01:56.443Z,5.47
2023-05-16T14:04:26.392Z,6.67
2023-05-16T14:06:56.394Z,6.57
2023-05-16T14:09:24.865Z,5.90
2023-05-16T14:11:55.870Z,5.70
2023-05-16T14:14:25.637Z,5.50
2023-05-16T14:16:54.005Z,6.17
2023-05-16T14:19:22.413Z,6.43
2023-05-16T14:21:50.819Z,8.07
2023-05-16T14:24:19.225Z,6.70
2023-05-16T14:26:47.571Z,6.87
2023-05-16T14:29:16.083Z,7.47
2023-05-16T14:31:45.898Z,7.13
2023-05-16T14:34:14.369Z,7.23
2023-05-16T14:36:43.704Z,6.47
2023-05-16T14:39:12.330Z,7.37
2023-05-16T14:41:43.335Z,5.77
2023-05-16T14:44:11.965Z,7.00
2023-05-16T14:46:40.675Z,6.70
2023-05-16T14:49:11.124Z,7.30
2023-05-16T14:51:39.672Z,6.87
2023-05-16T14:54:08.555Z,7.37
2023-05-16T14:56:37.001Z,7.33
2023-05-16T14:59:05.376Z,10.80
2023-05-16T15:01:33.902Z,8.47
2023-05-16T15:04:02.380Z,7.67
2023-05-16T15:06:32.217Z,7.53
2023-05-16T15:09:00.619Z,7.00
2023-05-16T15:11:30.852Z,6.23
2023-05-16T15:13:59.370Z,7.57
2023-05-16T15:16:27.831Z,7.60
2023-05-16T15:18:56.326Z,7.23
2023-05-16T15:21:24.767Z,7.97
2023-05-16T15:23:55.423Z,8.10
2023-05-16T15:26:24.715Z,7.47
2023-05-16T15:28:55.617Z,7.23
2023-05-16T15:31:24.492Z,7.30
2023-05-16T15:33:53.027Z,7.73
2023-05-16T15:36:21.454Z,7.27
2023-05-16T15:38:49.976Z,6.70
2023-05-16T15:41:43.299Z,7.83
2023-05-16T15:44:08.214Z,7.30
2023-05-16T15:46:36.744Z,7.43
2023-05-16T15:49:05.266Z,7.07
2023-05-16T15:51:33.669Z,7.80
2023-05-16T15:54:02.736Z,7.60
2023-05-16T15:56:33.089Z,7.17
2023-05-16T15:59:01.486Z,7.40
2023-05-16T16:01:30.025Z,7.50
2023-05-16T16:03:58.583Z,7.60
2023-05-16T16:06:27.155Z,7.63
2023-05-16T16:08:55.698Z,6.77
2023-05-16T16:11:25.121Z,6.90
2023-05-16T16:13:55.040Z,7.07
2023-05-16T16:16:23.555Z,6.17
2023-05-16T16:18:51.967Z,7.93
2023-05-16T16:21:20.746Z,7.80
2023-05-16T16:23:49.360Z,6.57
2023-05-16T16:26:17.993Z,6.73
2023-05-16T16:28:46.440Z,6.70
2023-05-16T16:31:16.420Z,7.40
2023-05-16T16:33:44.979Z,7.20
2023-05-16T16:36:13.414Z,7.40
2023-05-16T16:38:41.803Z,7.30
2023-05-16T16:41:10.601Z,7.73
2023-05-16T16:43:40.464Z,7.37
2023-05-16T16:46:09.156Z,6.80
2023-05-16T16:48:39.155Z,6.23
2023-05-16T16:51:07.614Z,6.97
2023-05-16T16:53:37.920Z,7.23
2023-05-16T16:56:07.347Z,7.43
2023-05-16T16:58:35.784Z,7.53
2023-05-16T17:01:04.357Z,7.43
2023-05-16T17:03:32.895Z,8.10
2023-05-16T17:06:02.970Z,8.27
2023-05-16T17:08:31.429Z,9.53
2023-05-16T17:11:05.038Z,7.63
2023-05-16T17:13:37.497Z,9.03
2023-05-16T17:16:07.181Z,8.17
2023-05-16T17:18:36.890Z,9.23
2023-05-16T17:21:08.451Z,9.03
2023-05-16T17:23:36.814Z,8.77
2023-05-16T17:26:05.407Z,9.37
2023-05-16T17:28:33.921Z,9.33
2023-05-16T17:31:02.988Z,10.10
2023-05-16T17:33:31.353Z,10.73
2023-05-16T17:35:59.722Z,9.87
2023-05-16T17:38:29.834Z,10.60
2023-05-16T17:40:58.186Z,9.87
2023-05-16T17:43:26.607Z,10.80
2023-05-16T17:45:54.989Z,11.23
2023-05-16T17:48:23.714Z,11.67
2023-05-16T17:50:52.459Z,14.60
2023-05-16T17:53:21.009Z,14.77
2023-05-16T17:55:50.863Z,13.73
2023-05-16T17:58:19.642Z,18.03
2023-05-16T18:00:48.546Z,17.10
2023-05-16T18:03:17.566Z,15.33
2023-05-16T18:05:46.127Z,15.30
2023-05-16T18:08:14.484Z,15.80
2023-05-16T18:10:51.523Z,15.23
2023-05-16T18:13:23.845Z,14.93
2023-05-16T18:15:52.599Z,15.37
2023-05-16T18:18:21.074Z,15.30
2023-05-16T18:20:50.862Z,14.80
2023-05-16T18:23:19.204Z,15.90
2023-05-16T18:25:47.961Z,14.30
2023-05-16T18:28:16.318Z,14.97
2023-05-16T18:30:46.142Z,14.40
2023-05-16T18:33:14.619Z,14.93
2023-05-16T18:35:43.108Z,12.10
2023-05-16T18:38:20.259Z,13.13
2023-05-16T18:40:52.816Z,13.13
2023-05-16T18:43:21.303Z,11.83
2023-05-16T18:45:51.090Z,11.67
2023-05-16T18:48:19.568Z,11.97
2023-05-16T18:50:47.987Z,13.13
2023-05-16T18:53:16.874Z,11.43
2023-05-16T18:55:45.242Z,12.43
2023-05-16T18:58:13.675Z,12.80
2023-05-16T19:00:42.161Z,13.13
2023-05-16T19:03:13.436Z,11.70
2023-05-16T19:05:42.179Z,10.67
2023-05-16T19:08:10.796Z,14.53
2023-05-16T19:10:41.757Z,16.73
2023-05-16T19:13:13.313Z,12.63
2023-05-16T19:15:41.746Z,12.17
2023-05-16T19:18:11.679Z,12.53
2023-05-16T19:20:40.215Z,12.53
2023-05-16T19:23:08.643Z,11.17
2023-05-16T19:25:37.080Z,16.57
2023-05-16T19:28:06.018Z,12.57
2023-05-16T19:30:34.441Z,13.07
2023-05-16T19:33:03.365Z,10.43
2023-05-16T19:35:33.402Z,12.60
2023-05-16T19:38:01.978Z,11.17
2023-05-16T19:40:30.928Z,14.03
2023-05-16T19:42:59.387Z,10.13
2023-05-16T19:45:29.785Z,9.90
2023-05-16T19:47:58.469Z,11.63
2023-05-16T19:50:26.981Z,10.00
2023-05-16T19:52:56.792Z,7.57
2023-05-16T19:55:26.994Z,10.70
2023-05-16T19:57:55.617Z,8.20
2023-05-16T20:00:24.493Z,6.27
2023-05-16T20:02:53.214Z,6.10
2023-05-16T20:05:23.421Z,6.83
2023-05-16T20:07:53.318Z,7.77
2023-05-16T20:10:23.187Z,5.97
2023-05-16T20:12:51.655Z,5.57
2023-05-16T20:15:20.071Z,6.00
2023-05-16T20:17:53.569Z,6.07
2023-05-16T20:20:22.340Z,7.23
2023-05-16T20:22:50.753Z,5.67
2023-05-16T20:25:19.204Z,6.07
2023-05-16T20:27:48.935Z,5.90
2023-05-16T20:30:17.289Z,5.30
2023-05-16T20:32:45.866Z,6.60
2023-05-16T20:35:14.911Z,5.17
2023-05-16T20:37:43.335Z,5.87
2023-05-16T20:40:12.427Z,5.90
2023-05-16T20:42:40.848Z,5.30
2023-05-16T20:45:12.079Z,6.60
2023-05-16T20:47:40.474Z,5.47
2023-05-16T20:50:10.475Z,5.67
2023-05-16T20:52:41.774Z,5.47
2023-05-16T20:55:10.716Z,5.93
2023-05-16T20:57:40.800Z,5.43
2023-05-16T21:00:13.653Z,5.30
2023-05-16T21:02:50.522Z,5.53
2023-05-16T21:05:34.824Z,5.70
2023-05-16T21:08:03.297Z,5.67
2023-05-16T21:10:31.725Z,7.47
2023-05-16T21:13:00.073Z,5.97
2023-05-16T21:15:30.020Z,5.93
2023-05-16T21:17:58.688Z,5.77
2023-05-16T21:20:28.511Z,5.60
2023-05-16T21:22:56.877Z,6.00
2023-05-16T21:25:25.394Z,5.80
2023-05-16T21:27:53.787Z,5.50
2023-05-16T21:30:22.217Z,4.97
2023-05-16T21:32:51.941Z,5.83
2023-05-16T21:35:20.356Z,5.70
2023-05-16T21:37:48.721Z,8.67
2023-05-16T21:40:19.204Z,5.40
2023-05-16T21:42:47.641Z,9.20
2023-05-16T21:45:16.596Z,6.40
2023-05-16T21:47:48.074Z,5.60
2023-05-16T21:50:18.238Z,5.23
2023-05-16T21:52:46.755Z,5.00
2023-05-16T21:55:15.121Z,5.43
2023-05-16T21:57:49.172Z,5.90
2023-05-16T22:00:19.015Z,5.47
2023-05-16T22:02:48.572Z,4.77
2023-05-16T22:05:19.543Z,5.07
2023-05-16T22:07:49.615Z,5.83
2023-05-16T22:10:18.615Z,4.90
2023-05-16T22:12:46.965Z,6.03
2023-05-16T22:15:15.331Z,4.27
2023-05-16T22:17:43.758Z,8.47
2023-05-16T22:20:13.013Z,5.83
2023-05-16T22:22:44.662Z,5.87
2023-05-16T22:25:16.278Z,5.40
2023-05-16T22:27:47.582Z,5.93
2023-05-16T22:30:16.106Z,5.97
2023-05-16T22:32:45.670Z,5.23
2023-05-16T22:35:14.450Z,7.13
2023-05-16T22:37:44.188Z,4.73
2023-05-16T22:40:13.222Z,5.17
2023-05-16T22:42:43.884Z,4.43
2023-05-16T22:45:12.657Z,6.13
2023-05-16T22:47:40.997Z,4.53
2023-05-16T22:50:10.205Z,6.93
2023-05-16T22:52:41.189Z,5.37
2023-05-16T22:55:11.718Z,4.00
2023-05-16T22:57:40.028Z,4.00
2023-05-16T23:00:10.215Z,5.43
2023-05-16T23:02:44.421Z,5.17
2023-05-16T23:05:12.877Z,4.50
2023-05-16T23:07:41.220Z,7.00
2023-05-16T23:10:14.589Z,6.37
2023-05-16T23:12:45.940Z,6.13
2023-05-16T23:15:14.300Z,6.27
2023-05-16T23:17:43.865Z,5.57
2023-05-16T23:20:13.166Z,4.40
2023-05-16T23:22:49.684Z,6.40
2023-05-16T23:25:19.436Z,6.50
2023-05-16T23:27:47.829Z,5.83
2023-05-16T23:30:16.791Z,5.33
2023-05-16T23:32:45.188Z,6.90
2023-05-16T23:35:13.510Z,8.97
2023-05-16T23:37:45.002Z,8.27
2023-05-16T23:40:14.097Z,5.93
2023-05-16T23:42:43.907Z,6.93
2023-05-16T23:45:13.142Z,5.53
2023-05-16T23:47:41.488Z,6.40
2023-05-16T23:50:10.958Z,7.27
2023-05-16T23:52:39.393Z,5.73
2023-05-16T23:55:11.386Z,4.13
2023-05-16T23:57:41.163Z,7.30
